Weather reports worldwide

Advertisment
Le Puy, France (7471): temperature & dewpoint: 10.08.2018 18:00:00 - 16.08.2018 18:00:00 (CEST)Le Puy, France (7471): temperature 5cm: 10.08.2018 18:00:00 - 16.08.2018 18:00:00 (CEST)Le Puy, France (7471): temperature -20cm & temperature -100cm: 10.08.2018 18:00:00 - 16.08.2018 18:00:00 (CEST)Le Puy, France (7471): wind speed & gusts: 10.08.2018 18:00:00 - 16.08.2018 18:00:00 (CEST)Le Puy, France (7471): wind direction: 10.08.2018 18:00:00 - 16.08.2018 18:00:00 (CEST)Le Puy, France (7471): visibility: 10.08.2018 18:00:00 - 16.08.2018 18:00:00 (CEST)Le Puy, France (7471): sunshine duration: 10.08.2018 18:00:00 - 16.08.2018 18:00:00 (CEST)Le Puy, France (7471): precipitation: 10.08.2018 18:00:00 - 16.08.2018 18:00:00 (CEST)
Date & Time tt [°C] td [°C] tt 5cm [°C] tt -20cm [°C] tt -100cm [°C] ff [km/h] ff [kn] fx [km/h] fx [kn] dd vv [km] sd [min] rr [mm]
16.08.2018 18:00:00 25,9 13,7 25,3 19,5 17,0 9 5 31 17 NW 20 10 0,0
16.08.2018 17:00:00 28,0 12,8 30,6 19,3 17,0 13 7 39 21 N 20 40 0,0
16.08.2018 16:00:00 28,2 12,9 30,0 19,1 17,0 8 4 23 12 N 20 30 0,0
16.08.2018 15:00:00 28,1 12,4 30,2 18,9 17,0 10 5 26 14 SSE 20 53 0,0
16.08.2018 14:00:00 27,1 10,7 33,1 18,8 17,0 10 5 26 14 SSE 18 60 0,0
16.08.2018 13:00:00 25,3 14,1 30,9 18,8 17,0 6 4 26 14 SW 20 60 0,0
16.08.2018 12:00:00 22,5 13,0 28,6 18,8 17,0 9 5 21 12 E 20 60 0,0
16.08.2018 11:00:00 20,5 12,7 27,1 18,9 17,0 7 4 16 8 E 19 60 0,0
16.08.2018 10:00:00 19,1 12,8 24,1 19,0 17,0 4 2 8 5 E 20 60 0,0
16.08.2018 09:00:00 15,3 11,9 16,7 19,2 17,0 0 0 5 3 N 12 60 0,0
16.08.2018 08:00:00 11,4 10,1 8,4 19,3 17,0 5 3 6 4 NNW 20 50 0,0
16.08.2018 07:00:00 10,0 9,1 7,6 19,5 17,0 4 2 7 4 SW 15 0 0,0
16.08.2018 06:00:00 10,2 9,0 8,6 19,6 17,0 4 2 6 3 SW 20 0 0,0
16.08.2018 05:00:00 11,2 9,8 8,1 19,7 17,0 0 0 7 4 N 20 0 0,0
16.08.2018 04:00:00 11,8 10,0 9,8 19,8 17,0 3 1 11 6 S 20 0 0,0
16.08.2018 03:00:00 12,8 10,5 11,5 19,8 17,0 8 4 11 6 SW 20 0 0,0
16.08.2018 02:00:00 12,6 10,5 11,6 19,9 17,0 6 3 10 5 SW 20 0 0,0
16.08.2018 01:00:00 13,2 10,7 12,2 19,9 17,0 8 4 10 5 SW 20 0 0,0
16.08.2018 00:00:00 13,6 10,8 12,4 19,9 17,0 7 4 9 5 WSW 20 0 0,0
15.08.2018 23:00:00 14,4 11,0 13,0 19,9 17,0 5 3 8 4 WSW 20 0 0,0
15.08.2018 22:00:00 15,9 11,3 14,3 19,8 17,0 5 3 8 4 WSW 20 0 0,0
15.08.2018 21:00:00 19,3 11,1 15,6 19,7 17,0 3 2 16 9 NNE 20 25 0,0
15.08.2018 20:00:00 22,2 10,7 22,2 19,5 17,0 13 7 23 13 NNE 20 60 0,0
15.08.2018 19:00:00 23,4 10,8 25,9 19,2 17,0 13 7 26 14 NE 20 60 0,0
15.08.2018 18:00:00 23,6 10,6 28,1 19,0 17,0 15 8 28 15 NE 20 60 0,0
15.08.2018 17:00:00 24,1 10,7 29,6 18,8 17,0 17 9 28 15 NE 20 60 0,0
15.08.2018 16:00:00 23,8 10,8 30,1 18,6 17,0 14 7 29 16 NE 20 60 0,0
15.08.2018 15:00:00 22,9 10,3 29,7 18,4 17,0 16 9 27 15 NE 20 60 0,0
15.08.2018 14:00:00 21,9 10,4 28,3 18,4 17,0 20 11 35 19 N 20 60 0,0
15.08.2018 13:00:00 21,3 11,0 23,1 18,3 17,0 15 8 31 17 ENE 20 51 0,0
15.08.2018 12:00:00 19,7 10,9 24,1 18,4 17,0 16 9 29 16 ENE 20 53 0,0
15.08.2018 11:00:00 19,2 11,7 22,6 18,5 17,0 15 8 27 15 NNE 20 55 0,0
15.08.2018 10:00:00 17,3 12,4 16,9 18,6 17,0 5 3 11 6 NE 20 19 0,0
15.08.2018 09:00:00 14,8 11,4 16,3 18,8 17,0 8 4 13 7 NNW 20 44 0,0
15.08.2018 08:00:00 12,6 10,8 7,1 18,9 17,0 0 0 7 4 N 20 44 0,0
15.08.2018 07:00:00 9,6 8,5 6,7 19,0 17,0 0 0 7 4 N 20 0 0,0
15.08.2018 06:00:00 9,9 8,5 7,4 19,1 17,0 0 0 7 4 N 20 0 0,0
15.08.2018 05:00:00 10,8 9,1 8,2 19,3 17,0 5 3 8 4 SW 20 0 0,2
15.08.2018 04:00:00 10,8 9,2 7,9 19,4 17,0 3 2 5 3 WSW 20 0 0,0
15.08.2018 03:00:00 11,0 9,3 8,3 19,5 17,0 3 2 5 3 WSW 20 0 0,0
15.08.2018 02:00:00 11,6 9,7 8,5 19,6 17,0 3 2 5 3 W 20 0 0,0
15.08.2018 01:00:00 12,2 9,8 9,9 19,7 17,0 5 3 9 5 WSW 20 0 0,0
15.08.2018 00:00:00 12,8 9,8 9,1 19,8 17,0 4 2 6 4 W 20 0 0,0
14.08.2018 23:00:00 12,4 9,8 9,7 19,8 17,0 4 2 13 7 ESE 20 0 0,0
14.08.2018 22:00:00 15,2 10,6 13,5 19,8 17,0 9 5 19 10 NNW 20 0 0,0
14.08.2018 21:00:00 16,5 10,8 15,2 19,7 17,0 14 8 26 14 NNW 20 1 0,0
14.08.2018 20:00:00 18,6 11,4 18,9 19,7 17,0 19 10 39 21 NNW 20 36 0,0
14.08.2018 19:00:00 20,3 11,0 19,7 19,7 17,0 24 13 41 22 NW 20 31 0,0
14.08.2018 18:00:00 19,8 11,8 21,0 19,6 17,0 26 14 39 21 NNW 20 19 0,0
14.08.2018 17:00:00 20,0 11,5 21,6 19,5 17,0 25 14 38 21 NNW 20 5 0,0
14.08.2018 16:00:00 20,6 12,0 21,7 19,5 17,0 24 13 38 21 N 20 21 0,0
14.08.2018 15:00:00 20,5 12,5 23,5 19,5 17,0 17 9 35 19 N 20 8 0,0
14.08.2018 14:00:00 18,8 12,3 19,4 19,5 17,0 16 9 28 15 N 20 0 0,0
14.08.2018 13:00:00 17,9 12,1 19,0 19,5 17,0 18 10 31 17 N 20 0 0,0
14.08.2018 12:00:00 17,3 11,8 18,7 19,6 17,0 21 12 35 19 NNW 20 8 0,0
14.08.2018 11:00:00 17,5 12,0 17,3 19,6 17,0 23 12 32 18 NW 20 22 0,0
14.08.2018 10:00:00 16,0 11,8 17,2 19,7 17,0 21 11 30 16 NW 20 19 0,0
14.08.2018 09:00:00 15,7 12,4 15,8 19,8 17,0 14 8 20 11 NNW 20 33 0,0
14.08.2018 08:00:00 14,8 12,5 13,7 19,9 17,0 7 4 13 7 W 20 3 0,0
14.08.2018 07:00:00 14,1 12,0 13,5 20,0 17,0 6 3 12 6 WNW 20 0 0,0
14.08.2018 06:00:00 14,0 12,6 13,4 20,1 17,0 9 5 12 7 NNW 20 0 0,0
14.08.2018 05:00:00 14,1 13,1 13,8 20,1 17,0 0 0 6 4 N 20 0 0,0
14.08.2018 04:00:00 14,2 13,4 13,9 20,2 17,0 0 0 8 5 N 20 0 0,0
14.08.2018 03:00:00 14,3 13,3 14,1 20,3 17,0 3 1 6 3 SSE 20 0 0,0
14.08.2018 02:00:00 14,9 13,4 14,3 20,4 17,0 5 3 9 5 WNW 7 0 0,0
14.08.2018 01:00:00 15,0 12,7 12,7 20,4 17,0 5 3 16 9 NNE 20 0 0,0
14.08.2018 00:00:00 15,6 12,7 14,5 20,5 17,0 11 6 22 12 W 20 0 0,2
13.08.2018 23:00:00 15,3 13,1 15,0 20,4 17,0 5 3 36 19 NW 20 0 0,0
13.08.2018 22:00:00 17,0 13,1 16,1 20,4 17,0 14 7 28 15 W 20 0 0,0
13.08.2018 21:00:00 16,9 13,8 16,3 20,4 17,0 9 5 17 9 SW 20 21 0,0
13.08.2018 20:00:00 18,0 14,3 16,6 20,3 17,0 9 5 20 11 SW 20 37 0,0
13.08.2018 19:00:00 17,4 14,5 16,2 20,2 17,0 13 7 33 18 WSW 9 0 0,4
13.08.2018 18:00:00 21,7 12,8 23,3 20,1 17,0 19 10 37 20 W 20 37 0,0
13.08.2018 17:00:00 22,5 13,6 23,5 20,0 17,0 20 11 40 22 W 20 44 0,0
13.08.2018 16:00:00 21,8 14,4 23,2 20,0 17,0 14 8 35 19 W 20 16 0,0
13.08.2018 15:00:00 21,7 15,3 23,1 20,0 17,0 12 7 23 12 W 20 5 0,0
13.08.2018 14:00:00 20,1 15,1 19,6 19,9 17,0 9 5 24 13 WNW 20 4 0,0
13.08.2018 13:00:00 20,1 13,8 20,8 20,0 17,0 13 7 26 14 WSW 16 0 0,0
13.08.2018 12:00:00 19,7 14,3 19,5 20,0 17,1 10 5 19 11 WNW 20 0 0,0
13.08.2018 11:00:00 19,5 13,7 20,1 20,1 17,0 5 3 26 14 W 20 0 0,0
13.08.2018 10:00:00 18,9 13,5 19,9 20,2 17,0 14 8 37 20 W 20 38 0,0
13.08.2018 09:00:00 19,0 14,5 15,2 20,3 17,0 11 6 23 12 SW 20 43 0,0
13.08.2018 08:00:00 15,1 14,1 14,3 20,4 17,1 2 1 12 7 WNW 20 0 0,0
13.08.2018 07:00:00 14,9 13,4 13,9 20,5 17,0 4 2 16 8 S 20 0 0,0
13.08.2018 06:00:00 15,6 13,4 14,3 20,6 17,1 3 2 10 6 WSW 20 0 0,0
13.08.2018 05:00:00 15,4 13,8 14,6 20,6 17,1 8 4 19 10 SW 20 0 0,0
13.08.2018 04:00:00 15,5 14,2 14,8 20,6 17,0 5 3 21 12 SSW 20 0 1,4
13.08.2018 03:00:00 17,2 13,1 14,7 20,7 17,0 9 5 24 13 E 11 0 0,4
13.08.2018 02:00:00 17,5 12,8 14,6 20,8 17,1 13 7 57 31 SE 20 0 0,6
13.08.2018 01:00:00 19,0 12,7 16,7 20,7 17,0 29 16 63 34 WSW 20 0 0,0
13.08.2018 00:00:00 20,9 16,1 19,1 20,7 17,1 13 7 29 15 S 20 0 0,0
12.08.2018 23:00:00 21,0 15,5 19,3 20,7 17,0 5 3 25 13 WSW 20 0 0,0
12.08.2018 22:00:00 21,2 14,4 19,7 20,6 17,1 5 3 26 14 WSW 20 0 0,0
12.08.2018 21:00:00 22,6 13,6 22,1 20,4 17,0 13 7 33 18 S 20 0 0,0
12.08.2018 20:00:00 24,3 14,1 24,0 20,2 17,0 16 9 35 19 S 20 11 0,0
12.08.2018 19:00:00 26,9 14,3 27,2 20,0 17,1 16 9 34 18 S 20 50 0,0
12.08.2018 18:00:00 30,7 10,1 30,0 19,8 17,0 15 8 29 16 WSW 20 49 0,0
12.08.2018 17:00:00 29,6 9,2 31,0 19,6 17,1 8 4 31 17 WSW 20 39 0,0
12.08.2018 16:00:00 30,1 10,1 30,2 19,3 17,0 15 8 32 17 W 20 36 0,0
12.08.2018 15:00:00 28,9 10,1 29,4 19,2 17,0 10 5 27 14 WNW 20 26 0,0
12.08.2018 14:00:00 29,0 9,2 33,3 19,1 17,0 12 7 30 16 WSW 20 58 0,0
12.08.2018 13:00:00 27,1 8,0 33,5 19,1 17,1 13 7 27 15 SW 20 60 0,0
12.08.2018 12:00:00 25,3 11,5 29,9 19,2 17,1 4 2 15 8 SSE 20 60 0,0
12.08.2018 11:00:00 21,2 10,9 25,9 19,2 17,0 6 3 13 7 E 20 60 0,0
12.08.2018 10:00:00 17,5 10,8 21,5 19,4 17,1 4 2 9 5 E 20 60 0,0
12.08.2018 09:00:00 14,0 9,6 17,8 19,6 17,1 3 1 6 3 NE 20 60 0,0
12.08.2018 08:00:00 11,5 9,1 6,2 19,7 17,1 0 0 4 2 N 20 55 0,0
12.08.2018 07:00:00 7,8 6,7 5,1 19,9 17,1 0 0 5 3 N 20 0 0,0
12.08.2018 06:00:00 8,3 7,1 6,7 20,0 17,1 3 1 5 3 WSW 20 0 0,0
12.08.2018 05:00:00 9,0 7,4 5,8 20,2 17,1 3 1 7 4 WSW 20 0 0,0
12.08.2018 04:00:00 9,1 7,2 6,3 20,3 17,1 0 0 9 5 N 20 0 0,0
12.08.2018 03:00:00 10,6 8,2 9,0 20,4 17,1 8 4 10 5 SW 20 0 0,0
12.08.2018 02:00:00 11,2 8,2 9,9 20,5 17,1 7 4 10 6 SW 20 0 0,0
12.08.2018 01:00:00 12,1 8,4 10,6 20,6 17,1 6 4 10 5 WSW 20 0 0,0
12.08.2018 00:00:00 12,8 8,9 11,3 20,6 17,1 6 4 9 5 WSW 20 0 0,0
11.08.2018 23:00:00 14,0 9,2 12,7 20,5 17,1 5 3 10 5 SW 20 0 0,0
11.08.2018 22:00:00 15,9 9,8 13,7 20,5 17,1 6 3 8 5 WSW 20 0 0,0
11.08.2018 21:00:00 19,3 8,9 15,5 20,3 17,1 4 2 14 8 N 20 30 0,0
11.08.2018 20:00:00 21,7 9,2 21,6 20,2 17,1 9 5 18 10 NE 20 60 0,0
11.08.2018 19:00:00 22,9 8,9 25,7 19,9 17,1 10 5 19 10 NE 20 60 0,0
11.08.2018 18:00:00 23,8 9,8 29,0 19,7 17,1 6 4 21 11 ENE 20 60 0,0
11.08.2018 17:00:00 23,3 9,3 29,6 19,4 17,0 6 3 20 11 E 20 60 0,0
11.08.2018 16:00:00 23,1 8,8 29,9 19,3 17,1 8 5 24 13 ESE 20 60 0,0
11.08.2018 15:00:00 22,5 8,9 29,4 19,1 17,1 6 3 24 13 NNE 20 60 0,0
11.08.2018 14:00:00 20,7 8,7 26,7 19,1 17,1 9 5 24 13 E 20 60 0,0
11.08.2018 13:00:00 19,7 8,4 26,2 19,1 17,1 5 3 22 12 NNE 20 60 0,0
11.08.2018 12:00:00 18,6 7,1 22,9 19,2 17,1 12 6 26 14 E 20 60 0,0
11.08.2018 11:00:00 17,6 7,0 22,7 19,3 17,1 8 4 19 10 NE 20 60 0,0
11.08.2018 10:00:00 16,0 7,2 22,6 19,4 17,0 6 3 10 5 ENE 20 60 0,0
11.08.2018 09:00:00 14,7 8,6 16,4 19,6 17,1 0 0 5 3 N 20 60 0,0
11.08.2018 08:00:00 10,6 8,4 7,3 19,8 17,1 3 2 5 3 NW 20 56 0,0
11.08.2018 07:00:00 7,9 6,4 5,8 19,9 17,0 2 1 5 3 WSW 20 0 0,0
11.08.2018 06:00:00 8,7 6,8 5,4 20,1 17,1 2 1 7 4 WNW 20 0 0,0
11.08.2018 05:00:00 8,6 7,2 6,2 20,2 17,1 0 0 6 3 N 20 0 0,0
11.08.2018 04:00:00 9,8 7,4 7,1 20,4 17,1 0 0 9 5 N 20 0 0,0
11.08.2018 03:00:00 9,9 8,0 8,0 20,5 17,1 5 3 8 4 WSW 20 0 0,0
11.08.2018 02:00:00 10,9 8,3 9,8 20,6 17,1 5 3 11 6 WSW 20 0 0,0
11.08.2018 01:00:00 11,5 8,5 9,9 20,6 17,1 7 4 11 6 WSW 20 0 0,0
11.08.2018 00:00:00 12,3 9,1 10,7 20,7 17,1 5 3 7 4 SW 20 0 0,0
10.08.2018 23:00:00 13,8 9,4 12,0 20,7 17,1 5 3 9 5 WSW 20 0 0,0
10.08.2018 22:00:00 15,5 9,4 13,9 20,6 17,0 6 3 10 5 WSW 20 0 0,0
10.08.2018 21:00:00 18,4 8,4 14,0 20,5 17,0 5 3 15 8 NNE 20 33 0,0
10.08.2018 20:00:00 21,0 8,9 20,9 20,3 17,1 8 4 21 11 NE 20 60 0,0
10.08.2018 19:00:00 22,2 4,3 25,5 20,1 17,1 12 6 23 13 N 20 60 0,0
10.08.2018 18:00:00 22,3 4,3 28,4 19,8 17,0 11 6 23 12 N 20 60 0,0

tt = temperature
td = dewpoint
tt 5cm = temperature 5cm
tt -20cm = temperature -20cm
tt -100cm = temperature -100cm
ff = wind speed
fx = gusts
dd = wind direction
vv = visibility
sd = sunshine duration
rr = precipitation

Next stations